METAR Data
IDs: Format: Raw Decoded Include TAF

Data at: 1719 UTC 26 Oct 2021

KATW 261645Z 07006KT 10SM SCT080 09/01 A3013

KATW 261126Z 2612/2712 02006KT P6SM SCT035
  FM261800 06005KT P6SM SCT035
  FM270000 07004KT P6SM SCT250